createdAt,value
2023-04-15T00:07:08.625Z,90.14
2023-04-15T00:17:07.793Z,89.77
2023-04-15T00:27:08.009Z,89.11
2023-04-15T00:37:08.185Z,88.55
2023-04-15T00:47:08.422Z,87.97
2023-04-15T00:57:08.601Z,88.79
2023-04-15T01:07:09.041Z,91.93
2023-04-15T01:17:09.019Z,91.99
2023-04-15T01:27:09.250Z,92.49
2023-04-15T01:37:09.434Z,93.22
2023-04-15T01:47:09.667Z,94.09
2023-04-15T01:57:09.851Z,95.07
2023-04-15T02:07:10.107Z,94.40
2023-04-15T02:17:10.301Z,93.78
2023-04-15T02:27:10.581Z,93.37
2023-04-15T02:37:10.674Z,95.11
2023-04-15T02:47:10.891Z,96.72
2023-04-15T02:57:11.079Z,96.55
2023-04-15T03:07:11.318Z,98.01
2023-04-15T03:17:11.505Z,98.27
2023-04-15T03:27:11.737Z,98.07
2023-04-15T03:37:11.913Z,96.91
2023-04-15T03:47:12.148Z,98.32
2023-04-15T03:57:12.320Z,98.16
2023-04-15T04:07:12.934Z,98.99
2023-04-15T04:17:12.850Z,99.20
2023-04-15T04:27:12.948Z,99.15
2023-04-15T04:37:13.120Z,98.43
2023-04-15T04:47:13.355Z,99.24
2023-04-15T04:57:13.551Z,99.30
2023-04-15T05:07:14.159Z,98.74
2023-04-15T05:17:13.884Z,97.86
2023-04-15T05:27:14.123Z,96.72
2023-04-15T05:37:14.334Z,96.98
2023-04-15T05:47:14.563Z,96.31
2023-04-15T05:57:14.751Z,97.10
2023-04-15T06:07:14.999Z,95.50
2023-04-15T06:17:15.177Z,94.21
2023-04-15T06:27:15.578Z,93.75
2023-04-15T06:37:15.509Z,92.94
2023-04-15T06:47:15.898Z,90.70
2023-04-15T06:57:15.892Z,89.13
2023-04-15T07:07:16.379Z,88.53
2023-04-15T07:17:16.257Z,86.39
2023-04-15T07:27:16.449Z,85.52
2023-04-15T07:37:16.615Z,85.03
2023-04-15T07:47:16.840Z,80.05
2023-04-15T07:57:17.024Z,70.05
2023-04-15T08:07:17.252Z,70.80
2023-04-15T08:17:17.410Z,69.98
2023-04-15T08:27:17.595Z,67.19
2023-04-15T08:37:17.729Z,67.60
2023-04-15T08:47:18.040Z,67.91
2023-04-15T08:57:18.238Z,65.84
2023-04-15T09:07:18.247Z,62.80
2023-04-15T09:17:18.443Z,59.62
2023-04-15T09:27:18.515Z,60.09
2023-04-15T09:37:31.798Z,56.60
2023-04-15T09:47:19.888Z,55.17
2023-04-15T09:57:19.055Z,51.52
2023-04-15T10:07:19.267Z,55.07
2023-04-15T10:17:19.427Z,51.55
2023-04-15T10:27:20.118Z,53.80
2023-04-15T10:37:20.060Z,53.09
2023-04-15T10:47:20.351Z,52.00
2023-04-15T10:57:20.166Z,53.17
2023-04-15T11:07:20.385Z,52.20
2023-04-15T11:17:20.476Z,51.04
2023-04-15T11:27:20.680Z,51.72
2023-04-15T11:37:20.840Z,53.96
2023-04-15T11:47:21.041Z,52.48
2023-04-15T11:57:21.204Z,52.51
2023-04-15T12:07:21.397Z,50.25
2023-04-15T12:17:21.600Z,47.60
2023-04-15T12:27:21.783Z,54.16
2023-04-15T12:37:22.166Z,56.27
2023-04-15T12:47:22.170Z,58.21
2023-04-15T12:57:22.411Z,67.65
2023-04-15T13:07:22.493Z,77.47
2023-04-15T13:17:22.643Z,77.56
2023-04-15T13:27:22.828Z,72.48
2023-04-15T13:37:22.908Z,75.18
2023-04-15T13:47:23.260Z,77.54
2023-04-15T13:57:23.121Z,72.03
2023-04-15T14:07:23.460Z,64.36
2023-04-15T14:17:23.573Z,60.81
2023-04-15T14:27:23.656Z,61.40
2023-04-15T14:37:23.821Z,58.48
2023-04-15T14:47:24.051Z,56.94
2023-04-15T14:57:24.203Z,56.30
2023-04-15T15:07:24.509Z,57.68
2023-04-15T15:17:24.619Z,55.94
2023-04-15T15:27:24.765Z,56.59
2023-04-15T15:37:24.808Z,61.19
2023-04-15T15:47:25.038Z,59.14
2023-04-15T15:57:25.260Z,61.73
2023-04-15T16:07:25.363Z,64.94
2023-04-15T16:17:25.542Z,67.05
2023-04-15T16:27:25.663Z,73.47
2023-04-15T16:37:26.061Z,78.43
2023-04-15T16:47:26.090Z,82.65
2023-04-15T16:57:30.313Z,87.87
2023-04-15T17:07:27.429Z,92.86
2023-04-15T17:17:26.641Z,95.99
2023-04-15T17:27:26.745Z,98.36
2023-04-15T17:37:26.941Z,98.25
2023-04-15T17:47:27.459Z,99.49
2023-04-15T17:57:27.316Z,99.99
2023-04-15T18:07:28.602Z,99.99
2023-04-15T18:17:27.673Z,99.99
2023-04-15T18:27:27.918Z,99.99
2023-04-15T18:37:27.985Z,99.99
2023-04-15T18:47:28.305Z,99.99
2023-04-15T18:57:30.865Z,99.99
2023-04-15T19:07:28.570Z,99.99
2023-04-15T19:17:28.778Z,99.99
2023-04-15T19:27:28.997Z,99.99
2023-04-15T19:37:29.187Z,99.99
2023-04-15T19:47:29.437Z,99.99
2023-04-15T19:57:29.541Z,99.99
2023-04-15T20:07:29.760Z,99.99
2023-04-15T20:17:30.001Z,99.99
2023-04-15T20:27:30.354Z,99.99
2023-04-15T20:37:30.346Z,99.99
2023-04-15T20:47:30.723Z,99.99
2023-04-15T20:57:30.721Z,99.99
2023-04-15T21:07:30.957Z,99.99
2023-04-15T21:17:31.081Z,99.99
2023-04-15T21:27:31.186Z,99.99
2023-04-15T21:37:31.376Z,99.99
2023-04-15T21:47:31.632Z,99.99
2023-04-15T21:57:32.793Z,99.99
2023-04-15T22:07:32.009Z,99.99
2023-04-15T22:17:32.223Z,99.99
2023-04-15T22:27:32.432Z,99.99
2023-04-15T22:37:32.597Z,99.99
2023-04-15T22:47:32.835Z,99.99
2023-04-15T22:57:32.917Z,99.99
2023-04-15T23:07:33.174Z,99.99
2023-04-15T23:17:33.504Z,99.99
2023-04-15T23:27:33.495Z,99.99
2023-04-15T23:37:33.685Z,99.99
2023-04-15T23:47:33.952Z,99.99
2023-04-15T23:57:34.052Z,99.99
